sensor_id;sensor_type;location;lat;lon;timestamp;P1;durP1;ratioP1;P2;durP2;ratioP2
9860;SDS011;4969;52.304;4.968;2023-04-06T00:02:11;13.37;;;11.90;;
9860;SDS011;4969;52.304;4.968;2023-04-06T00:04:38;13.63;;;12.33;;
9860;SDS011;4969;52.304;4.968;2023-04-06T00:07:05;13.87;;;12.50;;
9860;SDS011;4969;52.304;4.968;2023-04-06T00:09:32;14.27;;;12.77;;
9860;SDS011;4969;52.304;4.968;2023-04-06T00:12:00;15.00;;;12.97;;
9860;SDS011;4969;52.304;4.968;2023-04-06T00:14:26;13.40;;;12.10;;
9860;SDS011;4969;52.304;4.968;2023-04-06T00:16:53;14.90;;;13.40;;
9860;SDS011;4969;52.304;4.968;2023-04-06T00:19:20;13.97;;;12.50;;
9860;SDS011;4969;52.304;4.968;2023-04-06T00:21:46;12.90;;;11.60;;
9860;SDS011;4969;52.304;4.968;2023-04-06T00:24:13;13.30;;;11.87;;
9860;SDS011;4969;52.304;4.968;2023-04-06T00:26:40;13.83;;;11.93;;
9860;SDS011;4969;52.304;4.968;2023-04-06T00:29:08;13.10;;;11.80;;
9860;SDS011;4969;52.304;4.968;2023-04-06T00:31:34;13.23;;;11.93;;
9860;SDS011;4969;52.304;4.968;2023-04-06T00:34:01;14.13;;;12.77;;
9860;SDS011;4969;52.304;4.968;2023-04-06T00:36:28;12.83;;;11.57;;
9860;SDS011;4969;52.304;4.968;2023-04-06T00:38:55;12.53;;;11.23;;
9860;SDS011;4969;52.304;4.968;2023-04-06T00:41:21;12.27;;;11.07;;
9860;SDS011;4969;52.304;4.968;2023-04-06T00:43:48;12.47;;;11.17;;
9860;SDS011;4969;52.304;4.968;2023-04-06T00:46:16;12.40;;;11.20;;
9860;SDS011;4969;52.304;4.968;2023-04-06T00:48:43;12.53;;;11.17;;
9860;SDS011;4969;52.304;4.968;2023-04-06T00:51:09;11.43;;;10.30;;
9860;SDS011;4969;52.304;4.968;2023-04-06T00:53:36;12.00;;;10.80;;
9860;SDS011;4969;52.304;4.968;2023-04-06T00:56:03;11.13;;;10.03;;
9860;SDS011;4969;52.304;4.968;2023-04-06T00:58:30;12.03;;;10.77;;
9860;SDS011;4969;52.304;4.968;2023-04-06T01:00:57;11.60;;;10.50;;
9860;SDS011;4969;52.304;4.968;2023-04-06T01:03:25;12.10;;;10.90;;
9860;SDS011;4969;52.304;4.968;2023-04-06T01:05:52;11.70;;;10.60;;
9860;SDS011;4969;52.304;4.968;2023-04-06T01:08:23;11.70;;;10.60;;
9860;SDS011;4969;52.304;4.968;2023-04-06T01:10:50;11.47;;;10.33;;
9860;SDS011;4969;52.304;4.968;2023-04-06T01:13:16;12.67;;;11.00;;
9860;SDS011;4969;52.304;4.968;2023-04-06T01:15:43;10.83;;;9.83;;
9860;SDS011;4969;52.304;4.968;2023-04-06T01:18:09;11.43;;;10.33;;
9860;SDS011;4969;52.304;4.968;2023-04-06T01:20:37;11.83;;;10.63;;
9860;SDS011;4969;52.304;4.968;2023-04-06T01:23:05;10.33;;;9.33;;
9860;SDS011;4969;52.304;4.968;2023-04-06T01:25:32;10.83;;;9.83;;
9860;SDS011;4969;52.304;4.968;2023-04-06T01:27:59;11.13;;;10.03;;
9860;SDS011;4969;52.304;4.968;2023-04-06T01:30:25;11.10;;;10.00;;
9860;SDS011;4969;52.304;4.968;2023-04-06T01:32:52;10.97;;;10.00;;
9860;SDS011;4969;52.304;4.968;2023-04-06T01:35:19;11.43;;;10.23;;
9860;SDS011;4969;52.304;4.968;2023-04-06T01:37:45;10.93;;;9.87;;
9860;SDS011;4969;52.304;4.968;2023-04-06T01:40:13;11.50;;;9.97;;
9860;SDS011;4969;52.304;4.968;2023-04-06T01:42:40;10.60;;;9.60;;
9860;SDS011;4969;52.304;4.968;2023-04-06T01:45:07;11.27;;;10.23;;
9860;SDS011;4969;52.304;4.968;2023-04-06T01:47:34;10.20;;;9.20;;
9860;SDS011;4969;52.304;4.968;2023-04-06T01:50:01;11.07;;;9.98;;
9860;SDS011;4969;52.304;4.968;2023-04-06T01:52:31;10.32;;;9.38;;
9860;SDS011;4969;52.304;4.968;2023-04-06T01:54:57;9.60;;;8.73;;
9860;SDS011;4969;52.304;4.968;2023-04-06T01:57:26;11.03;;;9.97;;
9860;SDS011;4969;52.304;4.968;2023-04-06T01:59:52;10.60;;;9.60;;
9860;SDS011;4969;52.304;4.968;2023-04-06T02:02:19;10.83;;;9.80;;
9860;SDS011;4969;52.304;4.968;2023-04-06T02:04:46;10.33;;;9.33;;
9860;SDS011;4969;52.304;4.968;2023-04-06T02:07:12;7.20;;;6.30;;
9860;SDS011;4969;52.304;4.968;2023-04-06T02:09:39;10.57;;;9.53;;
9860;SDS011;4969;52.304;4.968;2023-04-06T02:12:06;11.23;;;10.03;;
9860;SDS011;4969;52.304;4.968;2023-04-06T02:14:34;9.70;;;8.80;;
9860;SDS011;4969;52.304;4.968;2023-04-06T02:17:00;10.43;;;9.40;;
9860;SDS011;4969;52.304;4.968;2023-04-06T02:19:27;10.97;;;9.87;;
9860;SDS011;4969;52.304;4.968;2023-04-06T02:21:53;8.93;;;8.23;;
9860;SDS011;4969;52.304;4.968;2023-04-06T02:24:20;9.55;;;8.75;;
9860;SDS011;4969;52.304;4.968;2023-04-06T02:26:47;10.05;;;9.05;;
9860;SDS011;4969;52.304;4.968;2023-04-06T02:29:13;9.50;;;8.60;;
9860;SDS011;4969;52.304;4.968;2023-04-06T02:31:41;9.73;;;8.82;;
9860;SDS011;4969;52.304;4.968;2023-04-06T02:34:08;9.53;;;8.60;;
9860;SDS011;4969;52.304;4.968;2023-04-06T02:36:37;10.70;;;9.60;;
9860;SDS011;4969;52.304;4.968;2023-04-06T02:39:03;9.80;;;8.90;;
9860;SDS011;4969;52.304;4.968;2023-04-06T02:41:30;10.23;;;9.23;;
9860;SDS011;4969;52.304;4.968;2023-04-06T02:43:56;8.93;;;8.17;;
9860;SDS011;4969;52.304;4.968;2023-04-06T02:46:23;8.77;;;8.07;;
9860;SDS011;4969;52.304;4.968;2023-04-06T02:48:51;8.95;;;8.25;;
9860;SDS011;4969;52.304;4.968;2023-04-06T02:51:18;9.50;;;8.60;;
9860;SDS011;4969;52.304;4.968;2023-04-06T02:53:45;9.20;;;8.30;;
9860;SDS011;4969;52.304;4.968;2023-04-06T02:56:12;9.27;;;8.43;;
9860;SDS011;4969;52.304;4.968;2023-04-06T02:58:38;10.60;;;9.60;;
9860;SDS011;4969;52.304;4.968;2023-04-06T03:01:05;8.90;;;8.10;;
9860;SDS011;4969;52.304;4.968;2023-04-06T03:03:32;9.27;;;8.47;;
9860;SDS011;4969;52.304;4.968;2023-04-06T03:06:00;9.52;;;8.45;;
9860;SDS011;4969;52.304;4.968;2023-04-06T03:08:26;10.27;;;8.85;;
9860;SDS011;4969;52.304;4.968;2023-04-06T03:10:53;9.77;;;8.88;;
9860;SDS011;4969;52.304;4.968;2023-04-06T03:13:20;9.35;;;8.45;;
9860;SDS011;4969;52.304;4.968;2023-04-06T03:15:46;9.40;;;8.40;;
9860;SDS011;4969;52.304;4.968;2023-04-06T03:18:13;8.70;;;7.93;;
9860;SDS011;4969;52.304;4.968;2023-04-06T03:20:40;8.40;;;7.70;;
9860;SDS011;4969;52.304;4.968;2023-04-06T03:23:08;9.68;;;8.77;;
9860;SDS011;4969;52.304;4.968;2023-04-06T03:25:34;8.98;;;8.18;;
9860;SDS011;4969;52.304;4.968;2023-04-06T03:28:01;8.65;;;7.85;;
9860;SDS011;4969;52.304;4.968;2023-04-06T03:30:28;8.98;;;8.10;;
9860;SDS011;4969;52.304;4.968;2023-04-06T03:32:55;10.70;;;8.95;;
9860;SDS011;4969;52.304;4.968;2023-04-06T03:35:21;10.63;;;9.00;;
9860;SDS011;4969;52.304;4.968;2023-04-06T03:37:48;9.98;;;8.68;;
9860;SDS011;4969;52.304;4.968;2023-04-06T03:40:16;9.80;;;8.95;;
9860;SDS011;4969;52.304;4.968;2023-04-06T03:42:43;9.13;;;8.15;;
9860;SDS011;4969;52.304;4.968;2023-04-06T03:45:10;8.90;;;8.05;;
9860;SDS011;4969;52.304;4.968;2023-04-06T03:47:37;8.82;;;7.93;;
9860;SDS011;4969;52.304;4.968;2023-04-06T03:50:05;8.68;;;7.88;;
9860;SDS011;4969;52.304;4.968;2023-04-06T03:52:32;9.18;;;8.18;;
9860;SDS011;4969;52.304;4.968;2023-04-06T03:54:59;8.32;;;7.63;;
9860;SDS011;4969;52.304;4.968;2023-04-06T03:57:27;9.03;;;8.23;;
9860;SDS011;4969;52.304;4.968;2023-04-06T03:59:53;10.10;;;9.20;;
9860;SDS011;4969;52.304;4.968;2023-04-06T04:02:20;9.32;;;8.43;;
9860;SDS011;4969;52.304;4.968;2023-04-06T04:04:46;8.52;;;7.82;;
9860;SDS011;4969;52.304;4.968;2023-04-06T04:07:13;9.57;;;7.83;;
9860;SDS011;4969;52.304;4.968;2023-04-06T04:09:40;9.87;;;8.87;;
9860;SDS011;4969;52.304;4.968;2023-04-06T04:12:06;9.93;;;9.00;;
9860;SDS011;4969;52.304;4.968;2023-04-06T04:14:34;9.03;;;8.23;;
9860;SDS011;4969;52.304;4.968;2023-04-06T04:17:01;9.60;;;8.70;;
9860;SDS011;4969;52.304;4.968;2023-04-06T04:19:27;9.82;;;8.57;;
9860;SDS011;4969;52.304;4.968;2023-04-06T04:21:54;9.63;;;8.73;;
9860;SDS011;4969;52.304;4.968;2023-04-06T04:24:21;9.57;;;8.77;;
9860;SDS011;4969;52.304;4.968;2023-04-06T04:26:47;10.97;;;9.87;;
9860;SDS011;4969;52.304;4.968;2023-04-06T04:29:14;9.80;;;8.85;;
9860;SDS011;4969;52.304;4.968;2023-04-06T04:31:43;9.35;;;8.43;;
9860;SDS011;4969;52.304;4.968;2023-04-06T04:34:09;8.45;;;7.75;;
9860;SDS011;4969;52.304;4.968;2023-04-06T04:36:36;10.38;;;9.38;;
9860;SDS011;4969;52.304;4.968;2023-04-06T04:39:03;12.10;;;11.00;;
9860;SDS011;4969;52.304;4.968;2023-04-06T04:41:29;13.47;;;11.13;;
9860;SDS011;4969;52.304;4.968;2023-04-06T04:43:56;11.93;;;10.70;;
9860;SDS011;4969;52.304;4.968;2023-04-06T04:46:23;12.40;;;11.20;;
9860;SDS011;4969;52.304;4.968;2023-04-06T04:48:51;14.13;;;12.13;;
9860;SDS011;4969;52.304;4.968;2023-04-06T04:51:17;11.63;;;10.53;;
9860;SDS011;4969;52.304;4.968;2023-04-06T04:53:44;13.73;;;12.30;;
9860;SDS011;4969;52.304;4.968;2023-04-06T04:56:11;15.13;;;12.80;;
9860;SDS011;4969;52.304;4.968;2023-04-06T04:58:37;14.10;;;11.60;;
9860;SDS011;4969;52.304;4.968;2023-04-06T05:01:04;13.97;;;12.03;;
9860;SDS011;4969;52.304;4.968;2023-04-06T05:03:32;11.07;;;9.90;;
9860;SDS011;4969;52.304;4.968;2023-04-06T05:06:00;13.27;;;10.93;;
9860;SDS011;4969;52.304;4.968;2023-04-06T05:08:27;11.23;;;10.03;;
9860;SDS011;4969;52.304;4.968;2023-04-06T05:10:53;13.67;;;12.23;;
9860;SDS011;4969;52.304;4.968;2023-04-06T05:13:20;13.03;;;11.67;;
9860;SDS011;4969;52.304;4.968;2023-04-06T05:15:47;12.67;;;11.47;;
9860;SDS011;4969;52.304;4.968;2023-04-06T05:18:13;13.83;;;12.20;;
9860;SDS011;4969;52.304;4.968;2023-04-06T05:20:40;13.50;;;12.10;;
9860;SDS011;4969;52.304;4.968;2023-04-06T05:23:09;13.63;;;12.33;;
9860;SDS011;4969;52.304;4.968;2023-04-06T05:25:37;14.63;;;13.13;;
9860;SDS011;4969;52.304;4.968;2023-04-06T05:28:03;16.80;;;13.53;;
9860;SDS011;4969;52.304;4.968;2023-04-06T05:30:30;14.03;;;12.53;;
9860;SDS011;4969;52.304;4.968;2023-04-06T05:32:57;14.97;;;13.47;;
9860;SDS011;4969;52.304;4.968;2023-04-06T05:35:24;14.77;;;13.20;;
9860;SDS011;4969;52.304;4.968;2023-04-06T05:37:51;13.27;;;11.97;;
9860;SDS011;4969;52.304;4.968;2023-04-06T05:40:19;14.87;;;12.97;;
9860;SDS011;4969;52.304;4.968;2023-04-06T05:42:46;16.67;;;13.30;;
9860;SDS011;4969;52.304;4.968;2023-04-06T05:45:14;12.07;;;10.83;;
9860;SDS011;4969;52.304;4.968;2023-04-06T05:47:41;16.33;;;13.23;;
9860;SDS011;4969;52.304;4.968;2023-04-06T05:50:08;14.53;;;13.00;;
9860;SDS011;4969;52.304;4.968;2023-04-06T05:52:36;15.07;;;12.83;;
9860;SDS011;4969;52.304;4.968;2023-04-06T05:55:02;13.53;;;12.13;;
9860;SDS011;4969;52.304;4.968;2023-04-06T05:57:31;15.43;;;13.83;;
9860;SDS011;4969;52.304;4.968;2023-04-06T05:59:58;13.57;;;12.07;;
9860;SDS011;4969;52.304;4.968;2023-04-06T06:02:24;14.17;;;12.33;;
9860;SDS011;4969;52.304;4.968;2023-04-06T06:04:51;12.63;;;11.33;;
9860;SDS011;4969;52.304;4.968;2023-04-06T06:07:18;15.27;;;13.63;;
9860;SDS011;4969;52.304;4.968;2023-04-06T06:09:44;14.07;;;12.67;;
9860;SDS011;4969;52.304;4.968;2023-04-06T06:12:11;15.23;;;13.63;;
9860;SDS011;4969;52.304;4.968;2023-04-06T06:14:39;16.90;;;14.43;;
9860;SDS011;4969;52.304;4.968;2023-04-06T06:17:05;20.30;;;11.40;;
9860;SDS011;4969;52.304;4.968;2023-04-06T06:19:32;15.00;;;13.43;;
9860;SDS011;4969;52.304;4.968;2023-04-06T06:21:59;15.03;;;12.67;;
9860;SDS011;4969;52.304;4.968;2023-04-06T06:24:27;11.37;;;10.17;;
9860;SDS011;4969;52.304;4.968;2023-04-06T06:26:54;17.17;;;13.10;;
9860;SDS011;4969;52.304;4.968;2023-04-06T06:29:21;16.50;;;14.17;;
9860;SDS011;4969;52.304;4.968;2023-04-06T06:31:50;17.20;;;12.60;;
9860;SDS011;4969;52.304;4.968;2023-04-06T06:34:16;18.23;;;14.30;;
9860;SDS011;4969;52.304;4.968;2023-04-06T06:36:43;17.67;;;15.27;;
9860;SDS011;4969;52.304;4.968;2023-04-06T06:39:10;15.43;;;13.90;;
9860;SDS011;4969;52.304;4.968;2023-04-06T06:41:36;15.20;;;12.37;;
9860;SDS011;4969;52.304;4.968;2023-04-06T06:44:03;14.67;;;13.00;;
9860;SDS011;4969;52.304;4.968;2023-04-06T06:46:30;18.03;;;12.70;;
9860;SDS011;4969;52.304;4.968;2023-04-06T06:48:58;12.90;;;11.57;;
9860;SDS011;4969;52.304;4.968;2023-04-06T06:51:25;14.65;;;13.00;;
9860;SDS011;4969;52.304;4.968;2023-04-06T06:53:51;17.50;;;14.83;;
9860;SDS011;4969;52.304;4.968;2023-04-06T06:56:18;15.07;;;13.43;;
9860;SDS011;4969;52.304;4.968;2023-04-06T06:58:45;16.27;;;13.07;;
9860;SDS011;4969;52.304;4.968;2023-04-06T07:01:11;14.82;;;12.32;;
9860;SDS011;4969;52.304;4.968;2023-04-06T07:03:38;16.00;;;13.20;;
9860;SDS011;4969;52.304;4.968;2023-04-06T07:06:06;16.75;;;15.00;;
9860;SDS011;4969;52.304;4.968;2023-04-06T07:08:33;15.95;;;13.63;;
9860;SDS011;4969;52.304;4.968;2023-04-06T07:10:59;16.83;;;14.90;;
9860;SDS011;4969;52.304;4.968;2023-04-06T07:13:26;15.00;;;13.43;;
9860;SDS011;4969;52.304;4.968;2023-04-06T07:15:53;17.55;;;15.75;;
9860;SDS011;4969;52.304;4.968;2023-04-06T07:18:20;17.17;;;15.35;;
9860;SDS011;4969;52.304;4.968;2023-04-06T07:20:47;17.85;;;14.65;;
9860;SDS011;4969;52.304;4.968;2023-04-06T07:23:15;17.05;;;15.25;;
9860;SDS011;4969;52.304;4.968;2023-04-06T07:25:41;16.80;;;15.07;;
9860;SDS011;4969;52.304;4.968;2023-04-06T07:28:08;16.73;;;14.80;;
9860;SDS011;4969;52.304;4.968;2023-04-06T07:30:34;17.48;;;15.68;;
9860;SDS011;4969;52.304;4.968;2023-04-06T07:33:02;18.80;;;16.02;;
9860;SDS011;4969;52.304;4.968;2023-04-06T07:35:30;17.40;;;15.48;;
9860;SDS011;4969;52.304;4.968;2023-04-06T07:37:57;19.02;;;17.13;;
9860;SDS011;4969;52.304;4.968;2023-04-06T07:40:25;23.10;;;18.38;;
9860;SDS011;4969;52.304;4.968;2023-04-06T07:42:52;23.02;;;17.95;;
9860;SDS011;4969;52.304;4.968;2023-04-06T07:45:18;20.65;;;18.02;;
9860;SDS011;4969;52.304;4.968;2023-04-06T07:47:45;20.33;;;17.98;;
9860;SDS011;4969;52.304;4.968;2023-04-06T07:50:12;22.90;;;20.10;;
9860;SDS011;4969;52.304;4.968;2023-04-06T07:52:39;23.02;;;17.88;;
9860;SDS011;4969;52.304;4.968;2023-04-06T07:55:06;19.67;;;17.58;;
9860;SDS011;4969;52.304;4.968;2023-04-06T07:57:34;23.35;;;19.02;;
9860;SDS011;4969;52.304;4.968;2023-04-06T08:00:01;22.85;;;19.50;;
9860;SDS011;4969;52.304;4.968;2023-04-06T08:02:28;21.88;;;19.48;;
9860;SDS011;4969;52.304;4.968;2023-04-06T08:04:55;22.75;;;19.25;;
9860;SDS011;4969;52.304;4.968;2023-04-06T08:07:22;23.95;;;19.05;;
9860;SDS011;4969;52.304;4.968;2023-04-06T08:09:48;21.80;;;18.67;;
9860;SDS011;4969;52.304;4.968;2023-04-06T08:12:15;23.17;;;20.05;;
9860;SDS011;4969;52.304;4.968;2023-04-06T08:14:43;21.00;;;18.77;;
9860;SDS011;4969;52.304;4.968;2023-04-06T08:17:10;21.85;;;19.40;;
9860;SDS011;4969;52.304;4.968;2023-04-06T08:19:36;25.20;;;21.25;;
9860;SDS011;4969;52.304;4.968;2023-04-06T08:22:03;23.33;;;19.45;;
9860;SDS011;4969;52.304;4.968;2023-04-06T08:24:30;22.40;;;19.42;;
9860;SDS011;4969;52.304;4.968;2023-04-06T08:26:57;25.98;;;22.33;;
9860;SDS011;4969;52.304;4.968;2023-04-06T08:29:24;32.33;;;23.70;;
9860;SDS011;4969;52.304;4.968;2023-04-06T08:31:52;26.95;;;21.92;;
9860;SDS011;4969;52.304;4.968;2023-04-06T08:34:18;26.60;;;21.20;;
9860;SDS011;4969;52.304;4.968;2023-04-06T08:36:45;28.05;;;24.23;;
9860;SDS011;4969;52.304;4.968;2023-04-06T08:39:12;25.88;;;20.95;;
9860;SDS011;4969;52.304;4.968;2023-04-06T08:41:41;27.00;;;22.80;;
9860;SDS011;4969;52.304;4.968;2023-04-06T08:44:08;24.00;;;20.25;;
9860;SDS011;4969;52.304;4.968;2023-04-06T08:46:34;26.73;;;23.58;;
9860;SDS011;4969;52.304;4.968;2023-04-06T08:49:03;27.60;;;24.63;;
9860;SDS011;4969;52.304;4.968;2023-04-06T08:51:31;28.60;;;23.13;;
9860;SDS011;4969;52.304;4.968;2023-04-06T08:53:59;27.95;;;22.33;;
9860;SDS011;4969;52.304;4.968;2023-04-06T08:56:26;26.02;;;22.42;;
9860;SDS011;4969;52.304;4.968;2023-04-06T08:58:54;27.25;;;24.17;;
9860;SDS011;4969;52.304;4.968;2023-04-06T09:01:22;27.80;;;23.10;;
9860;SDS011;4969;52.304;4.968;2023-04-06T09:03:51;27.33;;;23.13;;
9860;SDS011;4969;52.304;4.968;2023-04-06T09:06:23;26.33;;;20.73;;
9860;SDS011;4969;52.304;4.968;2023-04-06T09:08:51;27.75;;;22.52;;
9860;SDS011;4969;52.304;4.968;2023-04-06T09:11:18;24.30;;;21.67;;
9860;SDS011;4969;52.304;4.968;2023-04-06T09:13:46;23.38;;;20.98;;
9860;SDS011;4969;52.304;4.968;2023-04-06T09:16:14;22.65;;;20.15;;
9860;SDS011;4969;52.304;4.968;2023-04-06T09:18:41;24.95;;;22.27;;
9860;SDS011;4969;52.304;4.968;2023-04-06T09:21:08;26.70;;;22.52;;
9860;SDS011;4969;52.304;4.968;2023-04-06T09:23:37;25.98;;;20.58;;
9860;SDS011;4969;52.304;4.968;2023-04-06T09:26:05;22.25;;;19.83;;
9860;SDS011;4969;52.304;4.968;2023-04-06T09:28:45;25.42;;;21.92;;
9860;SDS011;4969;52.304;4.968;2023-04-06T09:31:13;26.40;;;21.75;;
9860;SDS011;4969;52.304;4.968;2023-04-06T09:33:48;24.48;;;21.73;;
9860;SDS011;4969;52.304;4.968;2023-04-06T09:36:14;24.75;;;20.90;;
9860;SDS011;4969;52.304;4.968;2023-04-06T09:38:52;23.23;;;20.63;;
9860;SDS011;4969;52.304;4.968;2023-04-06T09:41:21;25.13;;;21.90;;
9860;SDS011;4969;52.304;4.968;2023-04-06T09:43:49;22.58;;;20.17;;
9860;SDS011;4969;52.304;4.968;2023-04-06T09:46:16;24.02;;;21.42;;
9860;SDS011;4969;52.304;4.968;2023-04-06T09:48:43;24.25;;;21.35;;
9860;SDS011;4969;52.304;4.968;2023-04-06T09:51:10;27.20;;;21.02;;
9860;SDS011;4969;52.304;4.968;2023-04-06T09:53:41;24.95;;;20.88;;
9860;SDS011;4969;52.304;4.968;2023-04-06T09:56:16;27.75;;;22.88;;
9860;SDS011;4969;52.304;4.968;2023-04-06T09:58:43;26.23;;;22.05;;
9860;SDS011;4969;52.304;4.968;2023-04-06T10:01:15;28.88;;;22.73;;
9860;SDS011;4969;52.304;4.968;2023-04-06T10:03:49;24.40;;;21.02;;
9860;SDS011;4969;52.304;4.968;2023-04-06T10:06:22;27.30;;;21.35;;
9860;SDS011;4969;52.304;4.968;2023-04-06T10:08:51;27.17;;;18.90;;
9860;SDS011;4969;52.304;4.968;2023-04-06T10:11:21;24.33;;;16.83;;
9860;SDS011;4969;52.304;4.968;2023-04-06T10:13:48;25.80;;;19.40;;
9860;SDS011;4969;52.304;4.968;2023-04-06T10:16:16;23.80;;;19.55;;
9860;SDS011;4969;52.304;4.968;2023-04-06T10:18:44;23.38;;;18.92;;
9860;SDS011;4969;52.304;4.968;2023-04-06T10:21:14;21.20;;;18.85;;
9860;SDS011;4969;52.304;4.968;2023-04-06T10:23:46;20.27;;;17.02;;
9860;SDS011;4969;52.304;4.968;2023-04-06T10:26:15;21.70;;;18.67;;
9860;SDS011;4969;52.304;4.968;2023-04-06T10:28:45;19.15;;;16.45;;
9860;SDS011;4969;52.304;4.968;2023-04-06T10:31:14;18.85;;;16.67;;
9860;SDS011;4969;52.304;4.968;2023-04-06T10:33:41;18.45;;;16.50;;
9860;SDS011;4969;52.304;4.968;2023-04-06T10:36:11;20.65;;;17.40;;
9860;SDS011;4969;52.304;4.968;2023-04-06T10:38:39;17.38;;;15.48;;
9860;SDS011;4969;52.304;4.968;2023-04-06T10:41:07;19.77;;;15.75;;
9860;SDS011;4969;52.304;4.968;2023-04-06T10:43:35;18.05;;;15.18;;
9860;SDS011;4969;52.304;4.968;2023-04-06T10:46:04;20.40;;;15.73;;
9860;SDS011;4969;52.304;4.968;2023-04-06T10:48:38;18.02;;;15.65;;
9860;SDS011;4969;52.304;4.968;2023-04-06T10:51:09;17.17;;;15.10;;
9860;SDS011;4969;52.304;4.968;2023-04-06T10:53:37;21.10;;;16.48;;
9860;SDS011;4969;52.304;4.968;2023-04-06T10:56:04;16.83;;;15.00;;
9860;SDS011;4969;52.304;4.968;2023-04-06T10:58:36;17.55;;;15.27;;
9860;SDS011;4969;52.304;4.968;2023-04-06T11:01:05;16.13;;;14.60;;
9860;SDS011;4969;52.304;4.968;2023-04-06T11:03:31;14.57;;;13.02;;
9860;SDS011;4969;52.304;4.968;2023-04-06T11:06:08;16.90;;;15.07;;
9860;SDS011;4969;52.304;4.968;2023-04-06T11:08:35;15.50;;;13.90;;
9860;SDS011;4969;52.304;4.968;2023-04-06T11:11:06;13.05;;;11.85;;
9860;SDS011;4969;52.304;4.968;2023-04-06T11:13:37;15.98;;;14.38;;
9860;SDS011;4969;52.304;4.968;2023-04-06T11:16:06;16.73;;;14.02;;
9860;SDS011;4969;52.304;4.968;2023-04-06T11:18:37;16.02;;;14.40;;
9860;SDS011;4969;52.304;4.968;2023-04-06T11:21:04;11.95;;;10.77;;
9860;SDS011;4969;52.304;4.968;2023-04-06T11:23:31;13.23;;;11.35;;
9860;SDS011;4969;52.304;4.968;2023-04-06T11:25:58;11.68;;;10.48;;
9860;SDS011;4969;52.304;4.968;2023-04-06T11:28:24;13.20;;;11.80;;
9860;SDS011;4969;52.304;4.968;2023-04-06T11:30:51;11.55;;;10.48;;
9860;SDS011;4969;52.304;4.968;2023-04-06T11:33:23;11.63;;;10.48;;
9860;SDS011;4969;52.304;4.968;2023-04-06T11:35:49;9.27;;;8.35;;
9860;SDS011;4969;52.304;4.968;2023-04-06T11:38:17;15.35;;;10.68;;
9860;SDS011;4969;52.304;4.968;2023-04-06T11:40:44;10.60;;;9.23;;
9860;SDS011;4969;52.304;4.968;2023-04-06T11:43:11;11.10;;;10.00;;
9860;SDS011;4969;52.304;4.968;2023-04-06T11:45:41;12.85;;;11.57;;
9860;SDS011;4969;52.304;4.968;2023-04-06T11:48:17;9.10;;;8.27;;
9860;SDS011;4969;52.304;4.968;2023-04-06T11:50:47;11.05;;;10.05;;
9860;SDS011;4969;52.304;4.968;2023-04-06T11:53:14;11.70;;;10.52;;
9860;SDS011;4969;52.304;4.968;2023-04-06T11:55:40;11.85;;;10.68;;
9860;SDS011;4969;52.304;4.968;2023-04-06T11:58:10;9.70;;;8.70;;
9860;SDS011;4969;52.304;4.968;2023-04-06T12:00:36;12.55;;;10.75;;
9860;SDS011;4969;52.304;4.968;2023-04-06T12:03:03;10.43;;;9.32;;
9860;SDS011;4969;52.304;4.968;2023-04-06T12:05:30;9.18;;;8.43;;
9860;SDS011;4969;52.304;4.968;2023-04-06T12:07:58;8.90;;;8.10;;
9860;SDS011;4969;52.304;4.968;2023-04-06T12:10:25;8.05;;;7.45;;
9860;SDS011;4969;52.304;4.968;2023-04-06T12:12:51;11.77;;;10.57;;
9860;SDS011;4969;52.304;4.968;2023-04-06T12:15:18;9.27;;;8.40;;
9860;SDS011;4969;52.304;4.968;2023-04-06T12:17:44;9.63;;;8.70;;
9860;SDS011;4969;52.304;4.968;2023-04-06T12:20:11;7.30;;;6.65;;
9860;SDS011;4969;52.304;4.968;2023-04-06T12:22:38;8.30;;;7.53;;
9860;SDS011;4969;52.304;4.968;2023-04-06T12:25:07;12.85;;;10.60;;
9860;SDS011;4969;52.304;4.968;2023-04-06T12:27:34;15.13;;;9.98;;
9860;SDS011;4969;52.304;4.968;2023-04-06T12:30:00;10.40;;;9.15;;
9860;SDS011;4969;52.304;4.968;2023-04-06T12:32:27;8.48;;;7.68;;
9860;SDS011;4969;52.304;4.968;2023-04-06T12:34:54;10.25;;;9.23;;
9860;SDS011;4969;52.304;4.968;2023-04-06T12:37:20;11.50;;;10.07;;
9860;SDS011;4969;52.304;4.968;2023-04-06T12:39:47;9.38;;;8.48;;
9860;SDS011;4969;52.304;4.968;2023-04-06T12:42:15;9.80;;;8.80;;
9860;SDS011;4969;52.304;4.968;2023-04-06T12:44:42;11.60;;;9.57;;
9860;SDS011;4969;52.304;4.968;2023-04-06T12:47:08;11.85;;;10.40;;
9860;SDS011;4969;52.304;4.968;2023-04-06T12:49:36;12.82;;;10.73;;
9860;SDS011;4969;52.304;4.968;2023-04-06T12:52:02;12.90;;;10.35;;
9860;SDS011;4969;52.304;4.968;2023-04-06T12:54:29;9.77;;;8.65;;
9860;SDS011;4969;52.304;4.968;2023-04-06T12:56:56;7.97;;;7.00;;
9860;SDS011;4969;52.304;4.968;2023-04-06T12:59:24;12.02;;;10.60;;
9860;SDS011;4969;52.304;4.968;2023-04-06T13:01:50;13.95;;;11.45;;
9860;SDS011;4969;52.304;4.968;2023-04-06T13:04:17;15.55;;;12.75;;
9860;SDS011;4969;52.304;4.968;2023-04-06T13:06:44;15.98;;;11.63;;
9860;SDS011;4969;52.304;4.968;2023-04-06T13:09:11;17.75;;;12.35;;
9860;SDS011;4969;52.304;4.968;2023-04-06T13:11:37;17.65;;;12.63;;
9860;SDS011;4969;52.304;4.968;2023-04-06T13:14:06;12.35;;;10.18;;
9860;SDS011;4969;52.304;4.968;2023-04-06T13:16:34;11.07;;;9.88;;
9860;SDS011;4969;52.304;4.968;2023-04-06T13:19:01;12.82;;;10.70;;
9860;SDS011;4969;52.304;4.968;2023-04-06T13:21:28;12.75;;;10.90;;
9860;SDS011;4969;52.304;4.968;2023-04-06T13:23:55;15.70;;;12.52;;
9860;SDS011;4969;52.304;4.968;2023-04-06T13:26:21;18.63;;;12.55;;
9860;SDS011;4969;52.304;4.968;2023-04-06T13:28:48;15.63;;;12.25;;
9860;SDS011;4969;52.304;4.968;2023-04-06T13:31:15;19.83;;;13.75;;
9860;SDS011;4969;52.304;4.968;2023-04-06T13:33:43;15.75;;;11.75;;
9860;SDS011;4969;52.304;4.968;2023-04-06T13:36:10;19.88;;;13.88;;
9860;SDS011;4969;52.304;4.968;2023-04-06T13:38:37;14.20;;;10.73;;
9860;SDS011;4969;52.304;4.968;2023-04-06T13:41:04;14.95;;;11.68;;
9860;SDS011;4969;52.304;4.968;2023-04-06T13:43:31;19.38;;;14.75;;
9860;SDS011;4969;52.304;4.968;2023-04-06T13:45:57;13.05;;;11.45;;
9860;SDS011;4969;52.304;4.968;2023-04-06T13:48:25;14.38;;;12.88;;
9860;SDS011;4969;52.304;4.968;2023-04-06T13:50:53;10.15;;;9.07;;
9860;SDS011;4969;52.304;4.968;2023-04-06T13:53:20;13.82;;;11.88;;
9860;SDS011;4969;52.304;4.968;2023-04-06T13:55:52;17.48;;;14.27;;
9860;SDS011;4969;52.304;4.968;2023-04-06T13:58:19;19.60;;;15.40;;
9860;SDS011;4969;52.304;4.968;2023-04-06T14:00:45;16.85;;;13.32;;
9860;SDS011;4969;52.304;4.968;2023-04-06T14:03:12;12.25;;;10.68;;
9860;SDS011;4969;52.304;4.968;2023-04-06T14:05:39;18.92;;;15.40;;
9860;SDS011;4969;52.304;4.968;2023-04-06T14:08:07;11.20;;;10.10;;
9860;SDS011;4969;52.304;4.968;2023-04-06T14:10:36;22.90;;;18.50;;
9860;SDS011;4969;52.304;4.968;2023-04-06T14:13:03;22.55;;;18.05;;
9860;SDS011;4969;52.304;4.968;2023-04-06T14:15:30;30.25;;;20.65;;
9860;SDS011;4969;52.304;4.968;2023-04-06T14:17:56;22.63;;;19.23;;
9860;SDS011;4969;52.304;4.968;2023-04-06T14:20:23;15.40;;;13.68;;
9860;SDS011;4969;52.304;4.968;2023-04-06T14:22:49;19.60;;;16.08;;
9860;SDS011;4969;52.304;4.968;2023-04-06T14:25:19;23.05;;;18.95;;
9860;SDS011;4969;52.304;4.968;2023-04-06T14:27:45;32.95;;;23.95;;
9860;SDS011;4969;52.304;4.968;2023-04-06T14:30:12;35.45;;;27.27;;
9860;SDS011;4969;52.304;4.968;2023-04-06T14:32:39;31.25;;;22.42;;
9860;SDS011;4969;52.304;4.968;2023-04-06T14:35:07;32.38;;;24.15;;
9860;SDS011;4969;52.304;4.968;2023-04-06T14:37:34;26.20;;;21.45;;
9860;SDS011;4969;52.304;4.968;2023-04-06T14:40:00;24.33;;;19.70;;
9860;SDS011;4969;52.304;4.968;2023-04-06T14:42:28;27.90;;;21.98;;
9860;SDS011;4969;52.304;4.968;2023-04-06T14:44:55;24.08;;;19.00;;
9860;SDS011;4969;52.304;4.968;2023-04-06T14:47:21;26.35;;;20.75;;
9860;SDS011;4969;52.304;4.968;2023-04-06T14:49:50;35.00;;;25.52;;
9860;SDS011;4969;52.304;4.968;2023-04-06T14:52:18;19.17;;;16.50;;
9860;SDS011;4969;52.304;4.968;2023-04-06T14:54:45;14.07;;;12.60;;